createdAt,value
2022-08-23T00:02:24.713Z,97860.97
2022-08-23T00:05:13.573Z,97874.66
2022-08-23T00:08:02.175Z,97870.00
2022-08-23T00:10:51.419Z,97863.28
2022-08-23T00:13:47.231Z,97875.97
2022-08-23T00:16:36.803Z,97884.34
2022-08-23T00:19:27.135Z,97875.22
2022-08-23T00:22:16.008Z,97873.69
2022-08-23T00:25:07.635Z,97879.50
2022-08-23T00:27:56.168Z,97883.69
2022-08-23T00:30:44.639Z,97888.06
2022-08-23T00:33:33.402Z,97881.59
2022-08-23T00:36:23.190Z,97890.03
2022-08-23T00:39:12.021Z,97886.91
2022-08-23T00:42:26.412Z,97903.69
2022-08-23T00:45:36.744Z,97898.84
2022-08-23T00:48:25.506Z,97898.00
2022-08-23T00:51:17.836Z,97893.06
2022-08-23T00:54:09.619Z,97901.38
2022-08-23T00:57:01.244Z,97894.81
2022-08-23T00:59:49.937Z,97898.38
2022-08-23T01:02:38.617Z,97913.47
2022-08-23T01:05:35.690Z,97901.28
2022-08-23T01:08:27.476Z,97898.84
2022-08-23T01:11:25.953Z,97904.88
2022-08-23T01:14:18.985Z,97905.28
2022-08-23T01:17:13.845Z,97897.09
2022-08-23T01:20:05.795Z,97894.81
2022-08-23T01:22:58.786Z,97904.94
2022-08-23T01:25:48.724Z,97898.22
2022-08-23T01:28:39.573Z,97894.00
2022-08-23T01:31:28.185Z,97877.31
2022-08-23T01:34:18.323Z,97878.06
2022-08-23T01:37:09.399Z,97884.00
2022-08-23T01:39:57.922Z,97884.63
2022-08-23T01:42:49.620Z,97887.06
2022-08-23T01:45:39.726Z,97882.78
2022-08-23T01:48:29.979Z,97890.56
2022-08-23T01:51:20.724Z,97888.88
2022-08-23T01:54:09.291Z,97900.69
2022-08-23T01:56:57.945Z,97893.34
2022-08-23T01:59:48.584Z,97895.13
2022-08-23T02:02:37.799Z,97892.19
2022-08-23T02:05:26.889Z,97892.16
2022-08-23T02:08:32.877Z,97891.00
2022-08-23T02:11:24.794Z,97893.28
2022-08-23T02:14:16.168Z,97886.41
2022-08-23T02:17:16.425Z,97888.97
2022-08-23T02:20:06.778Z,97891.34
2022-08-23T02:22:55.172Z,97886.78
2022-08-23T02:25:46.925Z,97887.50
2022-08-23T02:28:35.706Z,97895.16
2022-08-23T02:31:26.257Z,97898.09
2022-08-23T02:34:20.011Z,97894.41
2022-08-23T02:37:09.945Z,97898.28
2022-08-23T02:39:58.362Z,97896.19
2022-08-23T02:42:48.193Z,97899.50
2022-08-23T02:45:38.444Z,97894.41
2022-08-23T02:48:28.034Z,97893.94
2022-08-23T02:51:25.155Z,97891.81
2022-08-23T02:54:15.560Z,97880.06
2022-08-23T02:57:04.324Z,97891.00
2022-08-23T02:59:53.104Z,97899.34
2022-08-23T03:02:42.599Z,97899.63
2022-08-23T03:05:32.369Z,97897.13
2022-08-23T03:08:23.790Z,97904.88
2022-08-23T03:11:15.246Z,97899.41
2022-08-23T03:14:07.086Z,97903.31
2022-08-23T03:16:56.110Z,97908.97
2022-08-23T03:19:48.285Z,97908.41
2022-08-23T03:22:37.812Z,97915.84
2022-08-23T03:25:28.092Z,97914.94
2022-08-23T03:28:52.179Z,97922.09
2022-08-23T03:31:42.719Z,97927.34
2022-08-23T03:34:33.675Z,97932.25
2022-08-23T03:37:22.486Z,97930.38
2022-08-23T03:40:12.087Z,97928.66
2022-08-23T03:43:02.454Z,97924.13
2022-08-23T03:45:52.231Z,97930.41
2022-08-23T03:48:41.561Z,97930.25
2022-08-23T03:51:32.593Z,97927.78
2022-08-23T03:54:22.752Z,97934.00
2022-08-23T03:57:13.816Z,97945.06
2022-08-23T04:00:07.842Z,97935.72
2022-08-23T04:03:03.774Z,97927.84
2022-08-23T04:05:55.449Z,97941.13
2022-08-23T04:08:45.073Z,97938.72
2022-08-23T04:11:33.669Z,97938.91
2022-08-23T04:14:27.012Z,97939.63
2022-08-23T04:17:17.931Z,97949.28
2022-08-23T04:20:08.760Z,97944.84
2022-08-23T04:23:04.073Z,97949.97
2022-08-23T04:25:57.579Z,97954.78
2022-08-23T04:28:47.417Z,97948.28
2022-08-23T04:31:36.396Z,97945.50
2022-08-23T04:34:29.865Z,97955.56
2022-08-23T04:37:19.645Z,97954.88
2022-08-23T04:40:26.338Z,97956.56
2022-08-23T04:43:14.964Z,97949.88
2022-08-23T04:46:03.424Z,97956.66
2022-08-23T04:48:56.113Z,97967.50
2022-08-23T04:51:53.594Z,97972.78
2022-08-23T04:54:43.359Z,97966.13
2022-08-23T04:57:50.440Z,97973.66
2022-08-23T05:00:47.173Z,97976.66
2022-08-23T05:03:41.404Z,97976.59
2022-08-23T05:06:31.380Z,97973.91
2022-08-23T05:09:21.383Z,97977.69
2022-08-23T05:12:10.763Z,97982.63
2022-08-23T05:14:59.268Z,97973.03
2022-08-23T05:17:47.860Z,97982.78
2022-08-23T05:20:38.681Z,97987.56
2022-08-23T05:23:31.981Z,97997.16
2022-08-23T05:26:34.725Z,97993.59
2022-08-23T05:29:23.274Z,97990.28
2022-08-23T05:32:12.618Z,98001.78
2022-08-23T05:35:01.334Z,98006.50
2022-08-23T05:37:50.161Z,98008.94
2022-08-23T05:40:38.611Z,98014.19
2022-08-23T05:43:33.468Z,98010.28
2022-08-23T05:46:28.489Z,98010.09
2022-08-23T05:49:44.843Z,98015.69
2022-08-23T05:52:33.272Z,98011.66
2022-08-23T05:55:23.595Z,98014.06
2022-08-23T05:58:42.066Z,98020.41
2022-08-23T06:01:31.737Z,98020.97
2022-08-23T06:04:25.118Z,98024.13
2022-08-23T06:07:14.255Z,98026.22
2022-08-23T06:10:03.121Z,98025.88
2022-08-23T06:12:52.490Z,98024.31
2022-08-23T06:15:45.393Z,98031.31
2022-08-23T06:18:33.929Z,98025.94
2022-08-23T06:21:36.995Z,98029.84
2022-08-23T06:24:27.067Z,98030.47
2022-08-23T06:27:22.680Z,98030.47
2022-08-23T06:30:13.321Z,98032.09
2022-08-23T06:33:09.279Z,98039.28
2022-08-23T06:36:33.475Z,98057.19
2022-08-23T06:39:37.380Z,98054.34
2022-08-23T06:42:44.588Z,98051.88
2022-08-23T06:45:35.280Z,98049.28
2022-08-23T06:48:26.169Z,98049.09
2022-08-23T06:51:16.181Z,98057.53
2022-08-23T06:54:40.550Z,98053.72
2022-08-23T06:57:56.463Z,98046.63
2022-08-23T07:01:28.556Z,98056.06
2022-08-23T07:04:31.560Z,98056.03
2022-08-23T07:07:39.769Z,98051.34
2022-08-23T07:10:34.543Z,98042.16
2022-08-23T07:13:22.939Z,98051.06
2022-08-23T07:16:11.896Z,98058.94
2022-08-23T07:19:00.717Z,98059.69
2022-08-23T07:21:50.847Z,98060.47
2022-08-23T07:24:40.600Z,98071.13
2022-08-23T07:27:29.252Z,98074.88
2022-08-23T07:30:26.572Z,98071.34
2022-08-23T07:33:15.230Z,98085.53
2022-08-23T07:36:26.379Z,98082.69
2022-08-23T07:39:17.646Z,98087.06
2022-08-23T07:42:23.095Z,98084.19
2022-08-23T07:45:15.112Z,98085.91
2022-08-23T07:48:07.284Z,98086.00
2022-08-23T07:51:09.017Z,98091.28
2022-08-23T07:53:59.060Z,98090.03
2022-08-23T07:56:49.288Z,98099.88
2022-08-23T07:59:56.938Z,98083.88
2022-08-23T08:03:01.005Z,98087.44
2022-08-23T08:06:00.935Z,98093.50
2022-08-23T08:08:49.677Z,98094.19
2022-08-23T08:11:38.570Z,98101.63
2022-08-23T08:14:28.370Z,98103.66
2022-08-23T08:17:20.530Z,98100.31
2022-08-23T08:20:31.047Z,98106.91
2022-08-23T08:23:45.472Z,98109.75
2022-08-23T08:27:01.007Z,98113.38
2022-08-23T08:29:50.793Z,98111.41
2022-08-23T08:32:46.985Z,98116.69
2022-08-23T08:35:35.976Z,98123.06
2022-08-23T08:38:27.115Z,98129.03
2022-08-23T08:41:21.988Z,98119.22
2022-08-23T08:44:21.338Z,98121.69
2022-08-23T08:47:18.310Z,98127.50
2022-08-23T08:50:16.073Z,98125.50
2022-08-23T08:53:11.202Z,98126.28
2022-08-23T08:56:22.722Z,98130.25
2022-08-23T08:59:24.334Z,98132.56
2022-08-23T09:02:22.031Z,98132.13
2022-08-23T09:05:27.009Z,98133.00
2022-08-23T09:08:43.210Z,98130.44
2022-08-23T09:11:52.757Z,98123.56
2022-08-23T09:14:58.594Z,98126.88
2022-08-23T09:17:52.564Z,98116.03
2022-08-23T09:20:43.314Z,98129.19
2022-08-23T09:23:38.329Z,98119.38
2022-08-23T09:26:31.361Z,98124.13
2022-08-23T09:29:22.935Z,98130.09
2022-08-23T09:32:29.518Z,98128.34
2022-08-23T09:35:22.279Z,98135.19
2022-08-23T09:38:21.298Z,98131.72
2022-08-23T09:41:20.504Z,98134.09
2022-08-23T09:44:16.492Z,98133.41
2022-08-23T09:47:13.029Z,98129.53
2022-08-23T09:50:17.489Z,98124.22
2022-08-23T09:53:10.562Z,98128.91
2022-08-23T09:56:11.580Z,98132.50
2022-08-23T09:59:01.063Z,98130.38
2022-08-23T10:02:02.572Z,98137.75
2022-08-23T10:05:01.225Z,98139.28
2022-08-23T10:08:00.047Z,98138.16
2022-08-23T10:10:53.356Z,98132.91
2022-08-23T10:13:52.401Z,98132.63
2022-08-23T10:16:53.573Z,98137.84
2022-08-23T10:19:49.992Z,98136.13
2022-08-23T10:22:45.852Z,98141.56
2022-08-23T10:25:55.668Z,98138.41
2022-08-23T10:29:09.832Z,98139.97
2022-08-23T10:32:05.151Z,98137.44
2022-08-23T10:35:16.602Z,98138.69
2022-08-23T10:38:34.527Z,98136.19
2022-08-23T10:41:44.583Z,98133.56
2022-08-23T10:44:41.396Z,98142.06
2022-08-23T10:47:38.774Z,98144.47
2022-08-23T10:50:40.853Z,98149.38
2022-08-23T10:53:37.765Z,98147.50
2022-08-23T10:56:26.145Z,98151.81
2022-08-23T10:59:24.117Z,98153.63
2022-08-23T11:02:22.643Z,98145.41
2022-08-23T11:05:25.605Z,98146.59
2022-08-23T11:08:33.580Z,98146.75
2022-08-23T11:11:43.297Z,98156.91
2022-08-23T11:14:43.916Z,98161.63
2022-08-23T11:17:38.694Z,98164.06
2022-08-23T11:21:12.076Z,98159.13
2022-08-23T11:24:31.661Z,98163.22
2022-08-23T11:27:30.174Z,98159.59
2022-08-23T11:30:51.073Z,98158.66
2022-08-23T11:33:50.921Z,98156.59
2022-08-23T11:36:40.262Z,98156.47
2022-08-23T11:39:28.834Z,98155.34
2022-08-23T11:42:20.551Z,98150.22
2022-08-23T11:45:24.820Z,98158.13
2022-08-23T11:48:26.336Z,98152.72
2022-08-23T11:51:28.541Z,98154.19
2022-08-23T11:54:42.114Z,98155.72
2022-08-23T11:57:47.114Z,98159.38
2022-08-23T12:00:57.532Z,98156.34
2022-08-23T12:03:58.621Z,98161.69
2022-08-23T12:06:51.509Z,98154.28
2022-08-23T12:09:53.266Z,98165.66
2022-08-23T12:12:47.019Z,98162.94
2022-08-23T12:16:16.618Z,98166.31
2022-08-23T12:19:13.637Z,98159.28
2022-08-23T12:22:10.641Z,98160.47
2022-08-23T12:25:02.948Z,98162.13
2022-08-23T12:27:56.865Z,98158.63
2022-08-23T12:30:57.499Z,98156.06
2022-08-23T12:33:57.178Z,98159.00
2022-08-23T12:36:57.074Z,98166.53
2022-08-23T12:39:51.541Z,98141.25
2022-08-23T12:42:41.294Z,98146.28
2022-08-23T12:45:38.583Z,98146.75
2022-08-23T12:48:29.578Z,98151.88
2022-08-23T12:51:18.050Z,98149.84
2022-08-23T12:54:16.896Z,98149.63
2022-08-23T12:57:11.768Z,98151.78
2022-08-23T13:00:17.224Z,98147.88
2022-08-23T13:03:17.192Z,98155.94
2022-08-23T13:06:08.674Z,98161.28
2022-08-23T13:09:04.126Z,98149.75
2022-08-23T13:11:54.653Z,98145.38
2022-08-23T13:14:48.132Z,98145.16
2022-08-23T13:17:39.977Z,98155.06
2022-08-23T13:20:28.685Z,98147.91
2022-08-23T13:23:29.498Z,98149.44
2022-08-23T13:26:37.094Z,98143.06
2022-08-23T13:29:26.844Z,98142.16
2022-08-23T13:32:34.535Z,98145.22
2022-08-23T13:35:34.425Z,98133.81
2022-08-23T13:38:26.658Z,98132.66
2022-08-23T13:41:31.570Z,98130.78
2022-08-23T13:44:22.475Z,98128.19
2022-08-23T13:47:24.215Z,98138.91
2022-08-23T13:50:17.859Z,98126.81
2022-08-23T13:53:15.718Z,98128.94
2022-08-23T13:56:04.820Z,98133.13
2022-08-23T13:58:56.496Z,98125.72
2022-08-23T14:01:45.429Z,98128.84
2022-08-23T14:04:35.688Z,98127.28
2022-08-23T14:07:24.056Z,98124.69
2022-08-23T14:10:12.545Z,98127.16
2022-08-23T14:13:02.299Z,98119.41
2022-08-23T14:15:56.065Z,98130.34
2022-08-23T14:21:55.385Z,98125.03
2022-08-23T14:24:45.420Z,98122.63
2022-08-23T14:27:34.947Z,98115.84
2022-08-23T14:30:29.381Z,98105.84
2022-08-23T14:33:18.302Z,98120.75
2022-08-23T14:36:08.140Z,98118.41
2022-08-23T14:38:57.947Z,98107.16
2022-08-23T14:41:50.374Z,98109.16
2022-08-23T14:44:40.579Z,98117.97
2022-08-23T14:47:29.535Z,98117.00
2022-08-23T14:50:18.034Z,98119.22
2022-08-23T14:53:06.967Z,98118.84
2022-08-23T14:56:18.727Z,98129.44
2022-08-23T14:59:05.267Z,98130.47
2022-08-23T15:01:55.020Z,98136.72
2022-08-23T15:04:43.507Z,98136.97
2022-08-23T15:07:31.873Z,98136.88
2022-08-23T15:13:35.471Z,98146.41
2022-08-23T15:16:26.047Z,98144.00
2022-08-23T15:19:15.059Z,98150.28
2022-08-23T15:22:18.783Z,98151.50
2022-08-23T15:25:10.787Z,98150.34
2022-08-23T15:27:59.961Z,98151.59
2022-08-23T15:30:51.681Z,98157.03
2022-08-23T15:33:40.789Z,98150.69
2022-08-23T15:36:29.750Z,98145.81
2022-08-23T15:39:18.633Z,98156.03
2022-08-23T15:42:07.343Z,98154.19
2022-08-23T15:44:56.224Z,98167.41
2022-08-23T15:47:51.505Z,98162.91
2022-08-23T15:50:45.256Z,98168.16
2022-08-23T15:53:33.721Z,98173.22
2022-08-23T15:56:26.132Z,98165.75
2022-08-23T15:59:17.222Z,98159.38
2022-08-23T16:02:06.645Z,98169.00
2022-08-23T16:04:56.642Z,98170.03
2022-08-23T16:07:45.976Z,98169.03
2022-08-23T16:10:34.996Z,98177.38
2022-08-23T16:13:24.402Z,98176.53
2022-08-23T16:16:21.008Z,98175.09
2022-08-23T16:19:11.022Z,98175.91
2022-08-23T16:22:01.216Z,98181.16
2022-08-23T16:24:49.624Z,98186.94
2022-08-23T16:27:38.421Z,98182.28
2022-08-23T16:30:29.217Z,98180.69
2022-08-23T16:33:17.692Z,98191.06
2022-08-23T16:36:07.248Z,98188.25
2022-08-23T16:38:57.244Z,98188.13
2022-08-23T16:41:46.086Z,98194.34
2022-08-23T16:44:35.498Z,98198.13
2022-08-23T16:47:23.970Z,98208.63
2022-08-23T16:50:13.794Z,98203.69
2022-08-23T16:53:06.889Z,98207.84
2022-08-23T16:55:57.139Z,98200.28
2022-08-23T16:58:46.634Z,98212.66
2022-08-23T17:01:45.608Z,98217.91
2022-08-23T17:04:34.306Z,98210.72
2022-08-23T17:07:23.083Z,98216.22
2022-08-23T17:10:15.668Z,98209.94
2022-08-23T17:13:06.613Z,98210.38
2022-08-23T17:15:55.070Z,98207.66
2022-08-23T17:18:43.548Z,98199.25
2022-08-23T17:21:32.548Z,98195.53
2022-08-23T17:24:21.076Z,98199.25
2022-08-23T17:27:09.470Z,98204.41
2022-08-23T17:30:12.783Z,98209.28
2022-08-23T17:33:01.343Z,98202.28
2022-08-23T17:35:49.876Z,98211.97
2022-08-23T17:38:38.409Z,98212.75
2022-08-23T17:41:28.492Z,98222.72
2022-08-23T17:44:17.520Z,98230.66
2022-08-23T17:47:13.875Z,98227.38
2022-08-23T17:50:03.525Z,98237.22
2022-08-23T17:52:52.050Z,98237.38
2022-08-23T17:55:41.254Z,98229.88
2022-08-23T17:58:29.771Z,98243.78
2022-08-23T18:01:18.374Z,98245.00
2022-08-23T18:04:08.348Z,98261.59
2022-08-23T18:06:56.842Z,98275.06
2022-08-23T18:09:48.307Z,98288.28
2022-08-23T18:12:37.212Z,98284.94
2022-08-23T18:15:25.870Z,98288.81
2022-08-23T18:18:14.618Z,98295.75
2022-08-23T18:21:07.708Z,98294.00
2022-08-23T18:23:57.156Z,98291.91
2022-08-23T18:27:03.932Z,98289.78
2022-08-23T18:29:54.784Z,98286.16
2022-08-23T18:32:43.349Z,98287.84
2022-08-23T18:35:32.758Z,98301.88
2022-08-23T18:38:22.632Z,98309.81
2022-08-23T18:41:13.150Z,98308.38
2022-08-23T18:44:05.702Z,98315.78
2022-08-23T18:46:54.584Z,98312.38
2022-08-23T18:49:43.060Z,98316.63
2022-08-23T18:52:32.646Z,98313.09
2022-08-23T18:55:22.586Z,98317.97
2022-08-23T18:58:11.606Z,98315.91
2022-08-23T19:01:02.389Z,98313.81
2022-08-23T19:03:56.148Z,98327.09
2022-08-23T19:06:45.462Z,98315.88
2022-08-23T19:09:34.174Z,98298.97
2022-08-23T19:12:24.896Z,98307.63
2022-08-23T19:15:13.675Z,98317.91
2022-08-23T19:18:03.348Z,98318.34
2022-08-23T19:20:52.334Z,98321.09
2022-08-23T19:23:40.743Z,98329.69
2022-08-23T19:26:32.773Z,98328.63
2022-08-23T19:29:22.761Z,98340.38
2022-08-23T19:32:13.181Z,98337.81
2022-08-23T19:35:06.134Z,98342.41
2022-08-23T19:37:54.589Z,98334.38
2022-08-23T19:40:43.675Z,98340.31
2022-08-23T19:43:32.487Z,98338.34
2022-08-23T19:46:22.810Z,98334.31
2022-08-23T19:49:13.250Z,98338.78
2022-08-23T19:52:02.135Z,98348.19
2022-08-23T19:54:50.710Z,98349.19
2022-08-23T19:57:39.171Z,98354.53
2022-08-23T20:00:29.387Z,98356.47
2022-08-23T20:03:19.190Z,98358.88
2022-08-23T20:06:09.554Z,98359.09
2022-08-23T20:08:59.339Z,98363.78
2022-08-23T20:11:47.880Z,98357.56
2022-08-23T20:14:36.612Z,98364.81
2022-08-23T20:17:25.099Z,98359.25
2022-08-23T20:20:15.158Z,98364.91
2022-08-23T20:23:21.235Z,98356.91
2022-08-23T20:26:09.794Z,98358.31
2022-08-23T20:29:00.289Z,98371.28
2022-08-23T20:31:51.467Z,98376.72
2022-08-23T20:34:39.986Z,98373.66
2022-08-23T20:37:32.396Z,98379.97
2022-08-23T20:40:21.890Z,98368.81
2022-08-23T20:43:10.711Z,98374.16
2022-08-23T20:45:59.746Z,98377.38
2022-08-23T20:48:48.244Z,98389.41
2022-08-23T20:51:37.073Z,98383.25
2022-08-23T20:54:26.902Z,98378.09
2022-08-23T20:57:15.530Z,98376.38
2022-08-23T21:00:05.372Z,98375.19
2022-08-23T21:02:53.838Z,98371.50
2022-08-23T21:05:42.347Z,98366.38
2022-08-23T21:08:30.944Z,98372.03
2022-08-23T21:11:21.706Z,98361.22
2022-08-23T21:14:11.112Z,98375.38
2022-08-23T21:16:59.506Z,98375.66
2022-08-23T21:19:47.963Z,98375.81
2022-08-23T21:22:36.538Z,98383.84
2022-08-23T21:25:24.990Z,98383.44
2022-08-23T21:28:14.839Z,98386.50
2022-08-23T21:31:07.865Z,98378.88
2022-08-23T21:33:56.735Z,98398.31
2022-08-23T21:36:45.121Z,98401.00
2022-08-23T21:39:33.694Z,98402.84
2022-08-23T21:42:23.836Z,98401.31
2022-08-23T21:45:13.864Z,98402.28
2022-08-23T21:48:02.312Z,98405.94
2022-08-23T21:50:51.361Z,98411.50
2022-08-23T21:53:39.822Z,98414.94
2022-08-23T21:56:28.357Z,98405.75
2022-08-23T21:59:18.608Z,98408.97
2022-08-23T22:02:08.456Z,98406.59
2022-08-23T22:04:56.844Z,98407.78
2022-08-23T22:07:45.392Z,98406.63
2022-08-23T22:10:34.150Z,98399.66
2022-08-23T22:13:23.160Z,98393.41
2022-08-23T22:16:12.254Z,98382.22
2022-08-23T22:19:02.466Z,98371.78
2022-08-23T22:21:52.490Z,98358.09
2022-08-23T22:24:41.828Z,98359.53
2022-08-23T22:27:30.844Z,98371.66
2022-08-23T22:30:19.852Z,98376.00
2022-08-23T22:33:08.412Z,98370.75
2022-08-23T22:36:03.510Z,98364.22
2022-08-23T22:38:52.990Z,98365.22
2022-08-23T22:41:41.886Z,98360.00
2022-08-23T22:44:30.438Z,98369.00
2022-08-23T22:47:19.055Z,98368.22
2022-08-23T22:50:08.165Z,98372.09
2022-08-23T22:52:58.103Z,98368.16
2022-08-23T22:55:52.132Z,98361.38
2022-08-23T22:58:41.549Z,98362.50
2022-08-23T23:01:32.502Z,98365.19
2022-08-23T23:04:26.527Z,98357.97
2022-08-23T23:07:35.379Z,98357.75
2022-08-23T23:10:25.471Z,98357.81
2022-08-23T23:13:14.269Z,98368.06
2022-08-23T23:16:04.877Z,98373.44
2022-08-23T23:19:11.703Z,98366.50
2022-08-23T23:22:00.977Z,98373.66
2022-08-23T23:24:49.738Z,98371.34
2022-08-23T23:27:39.859Z,98367.16
2022-08-23T23:30:28.935Z,98368.75
2022-08-23T23:33:17.647Z,98375.91
2022-08-23T23:36:06.707Z,98380.19
2022-08-23T23:38:56.602Z,98383.00
2022-08-23T23:41:45.199Z,98374.28
2022-08-23T23:44:35.236Z,98378.56
2022-08-23T23:47:24.095Z,98376.34
2022-08-23T23:50:14.007Z,98376.66
2022-08-23T23:53:02.742Z,98373.28
2022-08-23T23:56:00.711Z,98370.63
2022-08-23T23:58:50.179Z,98367.09
